Time;durP1;ratioP1;P1;durP2;ratioP2;P2;SDS_P1;SDS_P2;PMS_P1;PMS_P2;Temp;Humidity;BMP_temperature;BMP_pressure;BME280_temperature;BME280_humidity;BME280_pressure;Samples;Min_cycle;Max_cycle;Signal;HPM_P1;HPM_P2
2022/01/23 00:02:07;;;;;;;17.00;7.70;;;;;;;-2.31;72.29;99234.33;25117;1313;3028268;-68
2022/01/23 00:04:37;;;;;;;21.10;9.40;;;;;;;-2.32;71.81;99233.31;25105;1313;3051670;-67
2022/01/23 00:07:09;;;;;;;17.90;9.40;;;;;;;-2.40;71.42;99234.25;25124;1313;3026396;-67
2022/01/23 00:09:38;;;;;;;14.10;7.50;;;;;;;-2.57;71.72;99242.52;25139;1313;3027168;-67
2022/01/23 00:12:24;;;;;;;17.40;8.10;;;;;;;-2.79;72.46;99241.02;25093;1313;3059510;-66
2022/01/23 00:17:41;;;;;;;30.00;8.60;;;;;;;-2.88;72.23;99233.91;25140;1313;3055437;-66
2022/01/23 00:20:12;;;;;;;21.00;9.70;;;;;;;-2.92;71.93;99233.79;25135;1313;3026419;-66
2022/01/23 00:22:54;;;;;;;22.00;9.40;;;;;;;-2.97;72.18;99233.65;25101;1313;3050324;-68
2022/01/23 00:31:00;;;;;;;21.50;8.70;;;;;;;-3.15;73.49;99247.01;25119;1313;3068929;-66
2022/01/23 00:33:29;;;;;;;15.40;7.50;;;;;;;-2.23;72.93;99251.54;25105;1313;3027009;-66
2022/01/23 00:35:58;;;;;;;21.30;10.50;;;;;;;-1.53;69.77;99247.71;25137;1313;3026459;-66
2022/01/23 00:38:27;;;;;;;22.10;10.80;;;;;;;-1.63;69.18;99245.11;25113;1313;3071044;-62
2022/01/23 00:40:56;;;;;;;25.90;11.20;;;;;;;-1.98;69.85;99248.16;25130;1313;3030390;-70
2022/01/23 00:43:28;;;;;;;25.40;12.70;;;;;;;-2.26;70.37;99247.30;25140;1313;3053925;-66
2022/01/23 00:51:32;;;;;;;10.40;5.80;;;;;;;-2.74;71.61;99246.46;25190;1313;3026981;-69
2022/01/23 00:54:04;;;;;;;14.30;7.90;;;;;;;-2.83;71.47;99241.05;25160;1313;3050975;-67
2022/01/23 00:56:33;;;;;;;15.40;7.40;;;;;;;-2.86;71.49;99240.75;25143;1316;3026542;-67
2022/01/23 00:59:14;;;;;;;19.10;7.80;;;;;;;-2.88;71.63;99237.86;25146;1314;3053062;-66
2022/01/23 01:01:43;;;;;;;10.10;4.50;;;;;;;-2.82;72.12;99235.56;25340;1313;3026377;-64
2022/01/23 01:04:12;;;;;;;19.70;8.20;;;;;;;-2.25;71.88;99239.73;25445;1317;3054511;-63
2022/01/23 01:06:41;;;;;;;17.60;7.50;;;;;;;-1.81;70.01;99240.55;25406;1313;3026793;-61
2022/01/23 01:09:13;;;;;;;17.30;8.00;;;;;;;-1.59;69.46;99238.01;25271;1313;3026171;-68
2022/01/23 01:11:58;;;;;;;14.70;7.20;;;;;;;-1.80;69.01;99234.33;25148;1316;3055973;-68
2022/01/23 01:36:05;;;;;;;17.20;8.30;;;;;;;-2.77;70.86;99238.94;25130;1313;3052926;-66
2022/01/23 01:38:34;;;;;;;20.50;10.70;;;;;;;-2.74;70.76;99233.43;25137;1316;3054493;-67
2022/01/23 01:41:03;;;;;;;29.30;11.80;;;;;;;-2.72;70.33;99233.06;25136;1313;3026867;-65
2022/01/23 01:43:34;;;;;;;23.00;11.10;;;;;;;-2.74;70.64;99231.88;25126;1313;3027240;-64
2022/01/23 01:46:03;;;;;;;20.30;9.20;;;;;;;-2.81;71.23;99237.27;25142;1313;3039988;-64
2022/01/23 01:48:53;;;;;;;19.60;8.80;;;;;;;-2.85;71.21;99236.27;25126;1313;3056457;-64
2022/01/23 01:51:23;;;;;;;13.50;5.70;;;;;;;-2.80;70.73;99231.27;25111;1313;3026723;-67
2022/01/23 01:54:13;;;;;;;15.80;5.90;;;;;;;-2.55;69.24;99231.00;25094;1317;3051534;-69
2022/01/23 01:56:53;;;;;;;13.10;5.80;;;;;;;-2.52;69.00;99232.86;25100;1313;3057467;-67
2022/01/23 02:03:20;;;;;;;13.20;4.90;;;;;;;-2.78;71.19;99243.77;25037;1319;3052380;-66
2022/01/23 02:08:38;;;;;;;15.50;7.10;;;;;;;-1.05;67.83;99232.85;25113;1313;3071366;-63
2022/01/23 02:11:19;;;;;;;21.30;10.10;;;;;;;-1.02;66.39;99233.33;25121;1313;3026474;-66
2022/01/23 02:13:58;;;;;;;19.70;9.70;;;;;;;-1.15;66.83;99234.93;25119;1313;3051287;-67
2022/01/23 02:16:52;;;;;;;16.00;7.70;;;;;;;-1.25;67.08;99236.11;25152;1313;3052289;-66
2022/01/23 02:50:46;;;;;;;96.90;41.70;;;;;;;-3.03;66.71;99285.29;25133;1315;3052955;-62
2022/01/23 02:56:01;;;;;;;;;;;;;;;-3.36;67.66;99311.23;25161;1319;3049086;-69
2022/01/23 02:58:55;;;;;;;87.90;34.90;;;;;;;-3.67;67.28;99309.88;25108;1313;3028001;-66
2022/01/23 03:01:20;;;;;;;65.40;30.70;;;;;;;-3.79;68.08;99313.54;25101;1313;3054034;-68
2022/01/23 03:04:29;;;;;;;71.30;28.80;;;;;;;-3.97;68.75;99320.64;24936;1323;3059558;-69
2022/01/23 03:10:11;;;;;;;42.90;20.40;;;;;;;-4.02;71.26;99320.83;25100;1314;3052061;-71
2022/01/23 03:26:33;;;;;;;41.50;20.10;;;;;;;-4.18;72.33;99335.77;25103;1313;3060593;-64
2022/01/23 03:31:58;;;;;;;46.20;19.80;;;;;;;-4.23;72.07;99339.70;25134;1313;3055440;-68
2022/01/23 03:34:28;;;;;;;40.30;19.50;;;;;;;-4.19;72.02;99346.19;25109;1316;3051822;-70
2022/01/23 03:36:58;;;;;;;41.00;19.60;;;;;;;-4.10;71.99;99346.00;25082;1316;3026195;-67
2022/01/23 03:39:27;;;;;;;48.10;20.50;;;;;;;-4.05;71.48;99347.86;25087;1315;3026537;-65
2022/01/23 03:41:55;;;;;;;50.20;21.40;;;;;;;-4.05;71.61;99351.80;25082;1313;3053857;-66
2022/01/23 03:44:25;;;;;;;51.70;21.00;;;;;;;-4.03;71.25;99351.29;25095;1317;3026856;-68
2022/01/23 03:47:13;;;;;;;50.40;21.30;;;;;;;-3.94;71.11;99348.85;25130;1313;3054603;-66
2022/01/23 03:49:42;;;;;;;42.10;19.90;;;;;;;-3.91;71.42;99350.72;25124;1313;3050045;-67
2022/01/23 03:52:47;;;;;;;45.90;20.50;;;;;;;-3.93;71.14;99351.25;25081;1313;3070009;-69
2022/01/23 03:55:16;;;;;;;48.60;21.30;;;;;;;-3.94;71.26;99349.03;25145;1315;3028800;-69
2022/01/23 03:57:46;;;;;;;54.30;23.10;;;;;;;-3.91;71.29;99352.79;24854;1319;3343894;-68
2022/01/23 04:00:17;;;;;;;43.40;21.10;;;;;;;-3.86;71.12;99350.70;25119;1313;3026577;-71
2022/01/23 04:02:46;;;;;;;56.20;23.20;;;;;;;-3.79;70.67;99348.46;25104;1313;3053736;-68
2022/01/23 04:05:27;;;;;;;51.30;24.20;;;;;;;-3.83;70.43;99342.81;25176;1313;3054939;-65
2022/01/23 04:07:56;;;;;;;51.80;23.30;;;;;;;-3.80;70.66;99349.48;25094;1316;3026940;-67
2022/01/23 04:10:25;;;;;;;48.70;22.00;;;;;;;-3.67;70.40;99356.79;25071;1316;3055176;-66
2022/01/23 04:13:08;;;;;;;48.70;23.40;;;;;;;-3.58;70.16;99351.27;25125;1313;3027280;-65
2022/01/23 04:15:46;;;;;;;50.10;22.70;;;;;;;-3.47;69.98;99350.52;25102;1313;3071121;-70
2022/01/23 04:32:45;;;;;;;37.10;18.20;;;;;;;-3.14;69.15;99341.92;24945;1322;3055171;-64
2022/01/23 05:00:21;;;;;;;46.70;19.40;;;;;;;-2.84;68.89;99358.33;25029;1315;3069195;-65
2022/01/23 05:05:58;;;;;;;36.10;17.40;;;;;;;-2.79;69.05;99359.15;25104;1313;3052599;-68
2022/01/23 05:08:43;;;;;;;38.90;17.90;;;;;;;-2.80;68.98;99360.02;25151;1316;3052443;-64
2022/01/23 05:11:37;;;;;;;35.40;15.60;;;;;;;-2.79;68.76;99360.52;25110;1313;3060555;-65
2022/01/23 05:14:11;;;;;;;36.70;16.20;;;;;;;-2.74;68.92;99363.05;25155;1313;3048140;-65
2022/01/23 05:19:39;;;;;;;37.90;17.60;;;;;;;-2.66;69.00;99368.30;31383;1319;3026643;-66
2022/01/23 05:24:40;;;;;;;35.50;16.10;;;;;;;-2.05;67.33;99374.24;24964;1321;3026577;-69
2022/01/23 05:27:10;;;;;;;33.70;14.30;;;;;;;-2.32;67.26;99380.35;25022;1321;3051067;-65
2022/01/23 05:29:39;;;;;;;29.50;14.30;;;;;;;-2.46;67.95;99386.14;25032;1322;3026625;-71
2022/01/23 05:32:11;;;;;;;35.90;15.90;;;;;;;-2.42;68.32;99387.81;25383;1318;3026647;-64
2022/01/23 05:34:41;;;;;;;39.00;15.80;;;;;;;-2.43;67.93;99388.33;25597;1318;3026515;-61
2022/01/23 05:37:16;;;;;;;39.00;18.60;;;;;;;-2.51;68.00;99390.64;25566;1318;3049335;-66
2022/01/23 05:39:48;;;;;;;40.40;19.20;;;;;;;-2.55;68.19;99391.19;25031;1318;3026946;-73
2022/01/23 05:42:17;;;;;;;47.40;21.50;;;;;;;-2.57;67.60;99389.66;24955;1318;3026752;-70
2022/01/23 05:44:46;;;;;;;45.70;22.40;;;;;;;-2.58;67.16;99392.41;25067;1318;3026487;-71
2022/01/23 05:47:17;;;;;;;52.90;26.70;;;;;;;-2.59;67.09;99396.72;25009;1319;3051607;-69
2022/01/23 05:50:10;;;;;;;66.20;32.20;;;;;;;-2.76;66.47;99399.23;25060;1318;3052774;-69
2022/01/23 05:52:43;;;;;;;59.60;30.40;;;;;;;-2.85;67.02;99398.45;25062;1316;3026443;-70
2022/01/23 05:55:44;;;;;;;68.60;30.90;;;;;;;-2.96;66.99;99406.24;24962;1318;3051604;-68
2022/01/23 05:58:26;;;;;;;56.60;28.50;;;;;;;-3.01;67.24;99407.64;25041;1318;3056309;-65
2022/01/23 06:00:57;;;;;;;63.90;28.60;;;;;;;-2.91;67.53;99406.89;25098;1317;3029242;-70
2022/01/23 06:03:26;;;;;;;55.10;28.80;;;;;;;-2.91;67.43;99411.18;25015;1318;3028401;-66
2022/01/23 06:06:06;;;;;;;55.80;25.10;;;;;;;-2.80;68.18;99419.67;25067;1318;3053030;-68
2022/01/23 06:08:34;;;;;;;59.00;26.50;;;;;;;-2.80;67.32;99419.33;24993;1318;3026588;-70
2022/01/23 06:11:04;;;;;;;57.50;25.60;;;;;;;-2.77;67.41;99418.11;25053;1318;3047782;-67
2022/01/23 06:13:40;;;;;;;56.50;26.30;;;;;;;-2.68;67.56;99422.84;25108;1318;3055055;-67
2022/01/23 06:16:11;;;;;;;56.50;26.00;;;;;;;-2.72;66.94;99428.36;25036;1318;3026562;-68
2022/01/23 06:18:43;;;;;;;64.60;25.50;;;;;;;-2.67;67.33;99437.77;25011;1318;3026431;-67
2022/01/23 06:21:32;;;;;;;66.70;26.00;;;;;;;-2.55;67.33;99434.08;25104;1318;3053486;-69
2022/01/23 06:24:25;;;;;;;46.30;22.10;;;;;;;-2.45;66.99;99437.94;25089;1318;3053430;-64
2022/01/23 06:27:01;;;;;;;55.60;23.90;;;;;;;-2.41;66.87;99438.07;24986;1318;3049382;-66
2022/01/23 06:29:31;;;;;;;58.10;24.00;;;;;;;-2.28;66.99;99441.05;25089;1315;3026311;-68
2022/01/23 06:32:02;;;;;;;51.20;23.90;;;;;;;-2.33;67.24;99441.44;25035;1318;3028673;-69
2022/01/23 06:34:31;;;;;;;55.70;24.80;;;;;;;-2.35;67.39;99446.77;25059;1315;3048838;-70
2022/01/23 06:37:02;;;;;;;47.70;19.90;;;;;;;-2.33;67.59;99451.05;25060;1315;3026785;-63
2022/01/23 06:39:32;;;;;;;47.00;21.20;;;;;;;-2.30;67.69;99455.30;25085;1318;3027718;-70
2022/01/23 06:42:04;;;;;;;47.20;20.80;;;;;;;-2.25;67.60;99456.98;25130;1315;3027005;-69
2022/01/23 06:44:33;;;;;;;45.00;19.40;;;;;;;-2.27;67.31;99457.51;25106;1315;3026247;-71
2022/01/23 06:47:03;;;;;;;40.90;19.60;;;;;;;-2.27;67.77;99458.88;25094;1315;3031054;-65
2022/01/23 06:49:32;;;;;;;37.70;18.40;;;;;;;-2.25;67.54;99458.88;25108;1315;3026483;-67
2022/01/23 06:52:01;;;;;;;46.60;21.10;;;;;;;-2.11;67.52;99465.95;25089;1315;3026444;-68
2022/01/23 06:54:30;;;;;;;37.20;18.80;;;;;;;-2.04;66.95;99466.08;25079;1317;3055674;-71
2022/01/23 06:57:05;;;;;;;38.80;19.60;;;;;;;-1.96;66.94;99467.02;25075;1318;3052675;-69
2022/01/23 06:59:35;;;;;;;35.70;18.20;;;;;;;-1.89;66.89;99471.73;25087;1315;3026473;-72
2022/01/23 07:02:21;;;;;;;52.70;22.40;;;;;;;-1.94;66.28;99467.86;25077;1318;3050397;-68
2022/01/23 07:05:09;;;;;;;44.40;20.80;;;;;;;-1.96;66.05;99468.73;25098;1315;3071565;-63
2022/01/23 07:07:57;;;;;;;53.70;22.40;;;;;;;-1.89;66.69;99474.66;25093;1315;3051309;-71
2022/01/23 07:10:45;;;;;;;43.40;19.00;;;;;;;-1.78;66.38;99473.20;25116;1315;3055447;-70
2022/01/23 07:13:28;;;;;;;50.20;20.50;;;;;;;-1.94;66.24;99470.95;25098;1315;3054918;-65
2022/01/23 07:16:26;;;;;;;53.60;23.10;;;;;;;-2.14;66.74;99474.05;24937;1315;3056835;-70
2022/01/23 07:19:18;;;;;;;64.50;28.90;;;;;;;-2.22;67.38;99484.23;24996;1315;3049585;-65
2022/01/23 07:21:54;;;;;;;55.90;28.50;;;;;;;-2.39;67.72;99489.52;25121;1315;3052945;-68
2022/01/23 07:24:23;;;;;;;64.90;30.60;;;;;;;-2.20;67.71;99490.23;25102;1315;3026301;-64
2022/01/23 07:26:52;;;;;;;63.20;27.60;;;;;;;-2.12;67.11;99492.23;25053;1315;3052054;-68
2022/01/23 07:29:22;;;;;;;62.30;28.30;;;;;;;-2.09;66.95;99490.15;25106;1315;3028729;-69
2022/01/23 07:31:59;;;;;;;71.30;32.20;;;;;;;-1.99;66.87;99489.89;25074;1315;3026599;-71
2022/01/23 07:34:29;;;;;;;64.50;30.00;;;;;;;-1.87;66.65;99500.06;25157;1315;3054369;-65
2022/01/23 07:36:59;;;;;;;57.30;28.70;;;;;;;-1.80;66.56;99511.67;25135;1315;3026884;-71
2022/01/23 07:39:40;;;;;;;63.60;27.70;;;;;;;-1.72;66.57;99520.88;25085;1315;3049394;-67
2022/01/23 07:42:16;;;;;;;86.60;37.30;;;;;;;-1.75;66.40;99523.14;25128;1315;3069036;-69
2022/01/23 07:45:06;;;;;;;113.90;45.00;;;;;;;-1.71;64.03;99526.71;25095;1314;3051961;-70
2022/01/23 07:47:54;;;;;;;109.50;46.20;;;;;;;-1.83;62.48;99530.08;25104;1315;3053925;-71
2022/01/23 07:50:42;;;;;;;120.20;47.60;;;;;;;-1.90;63.24;99525.84;25095;1315;3054589;-70
2022/01/23 07:53:30;;;;;;;91.70;42.00;;;;;;;-1.86;63.14;99523.76;25154;1315;3059583;-66
2022/01/23 07:56:10;;;;;;;87.20;37.40;;;;;;;-1.80;63.49;99525.75;25150;1315;3051873;-72
2022/01/23 07:59:15;;;;;;;80.90;36.00;;;;;;;-1.73;63.88;99525.02;24953;1320;3053199;-71
2022/01/23 08:01:59;;;;;;;86.20;37.00;;;;;;;-1.68;64.33;99528.73;25123;1315;3049782;-68
2022/01/23 08:04:57;;;;;;;71.60;35.70;;;;;;;-1.43;64.29;99529.69;25093;1314;3071072;-69
2022/01/23 08:10:15;;;;;;;89.10;39.20;;;;;;;-1.23;63.81;99529.83;25103;1315;3052564;-71
2022/01/23 08:12:44;;;;;;;88.10;40.20;;;;;;;-1.16;63.47;99534.02;25103;1315;3027854;-65
2022/01/23 08:15:15;;;;;;;88.80;39.40;;;;;;;-1.11;62.90;99537.92;25134;1315;3025987;-67
2022/01/23 08:17:44;;;;;;;86.90;39.10;;;;;;;-0.99;62.84;99543.27;25130;1315;3027055;-68
2022/01/23 08:20:13;;;;;;;110.90;42.80;;;;;;;-0.94;62.49;99542.89;25138;1313;3026539;-70
2022/01/23 08:22:42;;;;;;;102.10;42.30;;;;;;;-0.95;62.26;99542.71;25113;1315;3051076;-66
2022/01/23 08:25:11;;;;;;;97.50;44.00;;;;;;;-0.88;62.24;99547.96;25118;1315;3026574;-70
2022/01/23 08:27:40;;;;;;;112.80;47.90;;;;;;;-0.82;61.88;99546.50;25103;1315;3070733;-68
2022/01/23 08:30:12;;;;;;;104.10;43.90;;;;;;;-0.83;62.10;99546.17;25156;1315;3027712;-70
2022/01/23 08:32:41;;;;;;;90.40;45.00;;;;;;;-0.73;61.81;99549.15;25124;1315;3054586;-71
2022/01/23 08:35:09;;;;;;;94.40;41.90;;;;;;;-0.57;61.73;99550.48;25120;1315;3026785;-67
2022/01/23 08:37:40;;;;;;;94.00;41.50;;;;;;;-0.51;61.59;99546.43;25141;1315;3052051;-73
2022/01/23 08:40:18;;;;;;;103.90;42.90;;;;;;;-0.50;61.63;99556.06;25087;1314;3026955;-67
2022/01/23 08:42:47;;;;;;;117.70;48.90;;;;;;;-0.47;61.61;99561.19;25131;1318;3049987;-68
2022/01/23 08:45:16;;;;;;;105.40;46.50;;;;;;;-0.48;61.28;99559.48;25087;1317;3026252;-69
2022/01/23 08:47:45;;;;;;;105.00;47.50;;;;;;;-0.52;61.40;99566.92;25111;1314;3058282;-70
2022/01/23 08:50:14;;;;;;;123.20;51.10;;;;;;;-0.60;61.24;99565.99;25119;1315;3026791;-71
2022/01/23 08:52:44;;;;;;;123.00;50.60;;;;;;;-0.66;60.96;99568.48;25109;1315;3026869;-69
2022/01/23 08:55:13;;;;;;;123.00;50.40;;;;;;;-0.64;61.06;99576.55;25141;1315;3027622;-68
2022/01/23 08:57:42;;;;;;;100.50;46.00;;;;;;;-0.53;61.93;99571.59;25139;1315;3051821;-69
2022/01/23 09:00:11;;;;;;;78.30;34.90;;;;;;;-0.39;61.34;99567.27;25118;1315;3027016;-69
2022/01/23 09:02:40;;;;;;;93.00;37.30;;;;;;;-0.31;60.67;99570.60;25075;1315;3056887;-66
2022/01/23 09:05:09;;;;;;;81.80;35.40;;;;;;;-0.38;60.65;99571.73;25243;1314;3028666;-69
2022/01/23 09:07:38;;;;;;;59.10;26.90;;;;;;;-0.38;60.66;99572.41;25351;1315;3049809;-69
2022/01/23 09:10:09;;;;;;;52.40;24.60;;;;;;;-0.27;59.84;99577.77;25402;1315;3026137;-66
2022/01/23 09:15:07;;;;;;;57.40;24.50;;;;;;;-0.43;59.26;99572.15;25073;1315;3026448;-70
2022/01/23 09:17:36;;;;;;;54.30;27.10;;;;;;;-0.43;59.41;99573.52;25139;1315;3052515;-69
2022/01/23 09:20:05;;;;;;;61.70;26.50;;;;;;;-0.51;59.82;99565.55;25124;1315;3026866;-70
2022/01/23 09:22:35;;;;;;;50.40;23.00;;;;;;;-0.52;59.98;99568.98;25126;1315;3072109;-68
2022/01/23 09:25:04;;;;;;;52.70;23.40;;;;;;;-0.63;59.87;99580.16;25102;1315;3026570;-66
2022/01/23 09:27:34;;;;;;;54.50;24.10;;;;;;;-0.42;59.57;99588.81;25095;1315;3026023;-68
2022/01/23 09:30:16;;;;;;;52.10;24.80;;;;;;;-0.42;58.91;99590.55;25110;1315;3026902;-72
2022/01/23 09:32:49;;;;;;;53.40;24.90;;;;;;;-0.62;59.30;99600.44;25138;1315;3050891;-69
2022/01/23 09:35:18;;;;;;;52.70;26.30;;;;;;;-0.62;59.74;99606.64;25123;1315;3052569;-69
2022/01/23 09:37:49;;;;;;;57.80;26.10;;;;;;;-0.76;59.92;99608.52;25130;1315;3026532;-69
2022/01/23 09:40:19;;;;;;;57.50;26.40;;;;;;;-0.60;59.67;99612.82;25129;1315;3026586;-66
2022/01/23 09:42:50;;;;;;;53.60;26.00;;;;;;;-0.59;59.69;99614.00;25176;1315;3026530;-68
2022/01/23 09:45:20;;;;;;;60.10;27.00;;;;;;;-0.51;59.58;99618.37;25218;1314;3053987;-70
2022/01/23 09:47:49;;;;;;;57.10;26.50;;;;;;;-0.54;59.80;99618.92;25234;1314;3026917;-70
2022/01/23 09:50:18;;;;;;;54.90;25.90;;;;;;;-0.52;59.70;99620.95;25146;1315;3026682;-69
2022/01/23 09:52:48;;;;;;;56.60;26.20;;;;;;;-0.44;59.52;99619.47;25458;1315;3050980;-63
2022/01/23 09:55:16;;;;;;;59.70;25.60;;;;;;;-0.33;59.72;99622.95;25564;1315;3025775;-63
2022/01/23 09:57:47;;;;;;;54.70;25.60;;;;;;;-0.23;59.65;99624.36;25483;1313;3051575;-68
2022/01/23 10:00:18;;;;;;;51.30;25.20;;;;;;;-0.21;59.20;99621.57;25194;1315;3026494;-70
2022/01/23 10:02:47;;;;;;;62.50;25.20;;;;;;;-0.13;58.93;99619.40;25171;1315;3028636;-67
2022/01/23 10:05:16;;;;;;;58.20;25.80;;;;;;;-0.08;59.06;99619.15;25151;1315;3029936;-67
2022/01/23 10:07:45;;;;;;;57.70;24.40;;;;;;;-0.05;58.58;99620.14;25144;1315;3053293;-69
2022/01/23 10:10:20;;;;;;;53.60;24.90;;;;;;;-0.09;58.57;99617.96;25164;1313;3026598;-68
2022/01/23 10:12:51;;;;;;;55.00;24.70;;;;;;;0.00;58.21;99620.41;25148;1315;3054361;-74
2022/01/23 10:15:40;;;;;;;52.60;23.90;;;;;;;-0.02;57.87;99613.55;25149;1315;3050436;-71
2022/01/23 10:18:09;;;;;;;46.90;22.10;;;;;;;-0.05;58.03;99612.92;25159;1315;3026389;-72
2022/01/23 10:20:38;;;;;;;48.10;21.50;;;;;;;-0.05;57.80;99603.61;25154;1315;3051768;-64
2022/01/23 10:23:08;;;;;;;48.20;19.50;;;;;;;0.07;57.74;99604.46;25144;1315;3026219;-68
2022/01/23 10:25:41;;;;;;;43.40;20.30;;;;;;;0.03;57.36;99601.77;25181;1315;3049088;-67
2022/01/23 10:28:14;;;;;;;47.30;22.20;;;;;;;-0.01;57.55;99603.38;25096;1317;3026669;-66
2022/01/23 10:30:50;;;;;;;45.10;23.10;;;;;;;0.09;57.43;99605.80;25136;1315;3030110;-67
2022/01/23 10:33:41;;;;;;;54.70;25.70;;;;;;;0.06;57.28;99611.02;25123;1315;3058676;-67
2022/01/23 10:36:17;;;;;;;59.80;26.30;;;;;;;-0.07;57.32;99613.45;25114;1315;3049571;-72
2022/01/23 10:38:58;;;;;;;51.80;25.40;;;;;;;-0.13;57.56;99614.24;25158;1315;3054239;-72
2022/01/23 10:41:44;;;;;;;58.10;24.60;;;;;;;0.01;56.94;99620.22;25162;1313;3051229;-72
2022/01/23 10:49:50;;;;;;;58.60;24.70;;;;;;;-0.03;56.11;99623.38;25110;1315;3052701;-70
2022/01/23 10:52:26;;;;;;;53.50;23.70;;;;;;;-0.11;56.21;99623.50;25108;1315;3050135;-72
2022/01/23 10:54:56;;;;;;;54.00;25.10;;;;;;;-0.15;56.37;99625.45;25169;1315;3057334;-72
2022/01/23 10:57:42;;;;;;;57.40;25.70;;;;;;;-0.15;56.50;99629.41;25134;1313;3026948;-73
2022/01/23 11:00:36;;;;;;;47.20;23.40;;;;;;;-0.19;56.74;99627.75;25178;1315;3051764;-68
2022/01/23 11:03:19;;;;;;;57.80;22.40;;;;;;;-0.18;56.89;99630.31;25115;1315;3059506;-70
2022/01/23 11:05:50;;;;;;;62.30;25.50;;;;;;;-0.19;56.78;99627.92;25104;1315;3050177;-67
2022/01/23 11:08:21;;;;;;;67.60;28.10;;;;;;;-0.18;56.80;99627.91;25128;1315;3026243;-69
2022/01/23 11:10:59;;;;;;;62.30;28.00;;;;;;;-0.20;56.89;99636.20;25103;1315;3029249;-70
2022/01/23 11:19:26;;;;;;;58.90;25.20;;;;;;;-0.11;56.16;99635.21;25055;1315;3054630;-70
2022/01/23 11:21:55;;;;;;;59.40;26.70;;;;;;;-0.18;56.35;99640.46;25130;1315;3026832;-68
2022/01/23 11:24:34;;;;;;;76.00;31.10;;;;;;;-0.22;56.37;99639.66;25092;1315;3028924;-68
2022/01/23 11:27:04;;;;;;;71.40;30.90;;;;;;;-0.21;56.46;99637.95;25097;1315;3056562;-72
2022/01/23 11:29:34;;;;;;;82.60;33.10;;;;;;;-0.16;56.41;99645.45;25111;1317;3026233;-73
2022/01/23 11:32:05;;;;;;;81.20;33.00;;;;;;;-0.19;56.66;99649.44;25126;1315;3026359;-74
2022/01/23 11:34:34;;;;;;;69.50;30.90;;;;;;;-0.07;56.72;99655.30;25100;1315;3053864;-69
2022/01/23 11:37:03;;;;;;;70.30;28.80;;;;;;;-0.13;56.37;99654.54;25132;1315;3028317;-68
2022/01/23 11:50:45;;;;;;;60.30;23.00;;;;;;;-0.21;56.47;99668.92;25084;1315;3049016;-67
2022/01/23 11:56:26;;;;;;;77.70;28.20;;;;;;;-0.24;56.70;99674.13;25127;1315;3050277;-67
2022/01/23 11:59:20;;;;;;;86.10;32.40;;;;;;;-0.19;56.85;99677.16;25105;1315;3070822;-71
2022/01/23 12:02:08;;;;;;;89.70;35.00;;;;;;;-0.28;57.09;99674.02;25156;1313;3052676;-72
2022/01/23 12:04:38;;;;;;;91.70;33.70;;;;;;;-0.33;57.32;99681.31;25086;1317;3053003;-73
2022/01/23 12:07:14;;;;;;;70.70;30.00;;;;;;;-0.37;57.47;99681.02;25148;1315;3026438;-67
2022/01/23 12:10:10;;;;;;;72.70;28.80;;;;;;;-0.31;57.46;99684.73;25121;1315;3058772;-68
2022/01/23 12:12:45;;;;;;;78.50;29.60;;;;;;;-0.46;57.33;99690.06;25111;1315;3052551;-71
2022/01/23 12:18:22;;;;;;;57.90;26.60;;;;;;;-0.42;57.57;99692.09;25137;1315;3052846;-67
2022/01/23 12:20:52;;;;;;;64.60;27.90;;;;;;;-0.41;57.83;99694.48;25128;1315;3069289;-71
2022/01/23 12:23:21;;;;;;;61.90;28.50;;;;;;;-0.36;58.07;99698.02;25140;1315;3026454;-72
2022/01/23 12:25:51;;;;;;;70.50;29.10;;;;;;;-0.35;58.30;99692.70;25127;1315;3027057;-70
2022/01/23 12:28:28;;;;;;;62.10;28.50;;;;;;;-0.40;58.41;99694.64;25141;1315;3068141;-70
2022/01/23 12:30:58;;;;;;;66.70;29.20;;;;;;;-0.40;58.52;99695.50;25142;1314;3050152;-69
2022/01/23 12:33:39;;;;;;;66.80;29.60;;;;;;;-0.34;58.91;99698.88;25116;1314;3030035;-68
2022/01/23 12:36:14;;;;;;;68.30;29.40;;;;;;;-0.41;58.91;99693.80;25109;1315;3052049;-69
2022/01/23 12:38:47;;;;;;;64.00;28.70;;;;;;;-0.50;59.44;99700.95;25142;1315;3058859;-71
2022/01/23 12:41:21;;;;;;;71.60;31.60;;;;;;;-0.56;59.72;99699.31;25127;1315;3026482;-68
2022/01/23 12:43:55;;;;;;;65.60;29.40;;;;;;;-0.61;60.07;99702.12;25114;1314;3056078;-72
2022/01/23 12:46:42;;;;;;;64.30;28.50;;;;;;;-0.68;60.19;99710.27;25107;1315;3053249;-70
2022/01/23 12:49:22;;;;;;;54.90;26.20;;;;;;;-0.64;60.30;99707.65;25169;1313;3070789;-70
2022/01/23 12:51:53;;;;;;;57.10;28.10;;;;;;;-0.71;60.57;99708.08;25111;1315;3049326;-68
2022/01/23 12:54:24;;;;;;;60.40;26.50;;;;;;;-0.83;61.20;99712.66;25124;1315;3026251;-69
2022/01/23 12:56:54;;;;;;;58.90;25.70;;;;;;;-0.97;61.49;99709.89;25138;1315;3026788;-74
2022/01/23 12:59:30;;;;;;;56.30;25.60;;;;;;;-1.01;61.94;99711.13;25092;1318;3027011;-70
2022/01/23 13:02:03;;;;;;;59.30;25.80;;;;;;;-1.11;62.31;99718.79;25084;1314;3048706;-73
2022/01/23 13:04:44;;;;;;;57.40;24.00;;;;;;;-0.97;61.76;99717.96;25119;1315;3055640;-67
2022/01/23 13:10:28;;;;;;;52.90;25.20;;;;;;;-1.04;62.36;99715.27;25143;1315;3068631;-69
2022/01/23 13:31:59;;;;;;;62.90;27.20;;;;;;;-0.55;61.46;99736.80;25118;1315;3071388;-66
2022/01/23 13:34:49;;;;;;;52.80;22.70;;;;;;;-0.37;60.67;99736.44;25138;1313;3051666;-72
2022/01/23 13:37:20;;;;;;;55.90;24.00;;;;;;;-0.36;59.87;99734.69;25129;1315;3054077;-67
2022/01/23 13:39:57;;;;;;;44.10;20.40;;;;;;;-0.34;59.94;99740.19;25094;1315;3027869;-74
2022/01/23 13:59:31;;;;;;;36.10;15.80;;;;;;;-0.40;58.05;99737.67;25516;1313;3051152;-64
2022/01/23 14:02:14;;;;;;;31.90;16.20;;;;;;;-0.48;57.71;99738.63;25495;1313;3054370;-67
2022/01/23 14:04:52;;;;;;;27.40;14.10;;;;;;;-0.60;57.88;99740.30;25375;1315;3055953;-64
2022/01/23 14:07:26;;;;;;;32.60;13.40;;;;;;;-0.60;57.68;99741.69;25221;1313;3049598;-67
2022/01/23 14:09:57;;;;;;;33.30;14.40;;;;;;;-0.59;57.72;99740.46;25125;1313;3055168;-64
2022/01/23 14:12:31;;;;;;;28.30;14.00;;;;;;;-0.54;58.17;99739.20;25169;1314;3025855;-71
2022/01/23 14:15:05;;;;;;;44.60;18.30;;;;;;;-0.52;57.87;99743.48;25122;1315;3071846;-68
2022/01/23 14:17:39;;;;;;;34.90;17.50;;;;;;;-0.64;58.12;99744.30;25100;1314;3047103;-73
2022/01/23 14:20:13;;;;;;;36.70;16.60;;;;;;;-0.67;58.26;99745.35;25129;1314;3053103;-72
2022/01/23 14:22:46;;;;;;;38.00;16.30;;;;;;;-0.78;58.43;99745.98;25096;1314;3050637;-72
2022/01/23 14:25:17;;;;;;;31.20;15.40;;;;;;;-0.85;58.71;99743.13;25116;1314;3058469;-73
2022/01/23 14:27:59;;;;;;;35.50;16.30;;;;;;;-0.81;58.82;99747.23;25100;1314;3026776;-68
2022/01/23 14:30:29;;;;;;;32.60;15.20;;;;;;;-0.91;58.94;99752.98;25088;1318;3053372;-73
2022/01/23 14:33:09;;;;;;;42.50;16.90;;;;;;;-0.99;59.73;99758.56;25114;1315;3026929;-71
2022/01/23 14:35:39;;;;;;;35.50;16.30;;;;;;;-0.93;59.28;99759.21;25061;1314;3071022;-73
2022/01/23 14:38:15;;;;;;;32.80;14.90;;;;;;;-0.93;59.56;99766.93;25110;1315;3027044;-73
2022/01/23 14:40:54;;;;;;;39.50;16.20;;;;;;;-1.01;59.73;99763.76;25133;1315;3053978;-68
2022/01/23 14:43:33;;;;;;;39.80;18.80;;;;;;;-1.02;59.84;99766.50;25120;1314;3050918;-69
2022/01/23 14:46:04;;;;;;;34.10;16.40;;;;;;;-0.97;59.66;99765.42;25158;1315;3056670;-72
2022/01/23 14:48:39;;;;;;;33.50;16.70;;;;;;;-1.10;59.97;99766.58;25105;1315;3027307;-70
2022/01/23 14:51:08;;;;;;;41.60;17.60;;;;;;;-1.19;60.41;99774.38;25165;1315;3055231;-72
2022/01/23 14:53:39;;;;;;;41.70;17.20;;;;;;;-1.24;60.66;99773.55;25129;1315;3026632;-69
2022/01/23 14:56:10;;;;;;;34.30;17.10;;;;;;;-1.11;60.81;99778.10;25098;1315;3027063;-73
2022/01/23 14:58:41;;;;;;;34.70;16.70;;;;;;;-1.14;60.72;99776.07;25101;1315;3057287;-76
2022/01/23 15:01:12;;;;;;;31.80;16.40;;;;;;;-1.10;61.02;99772.93;25169;1315;3027658;-70
2022/01/23 15:03:43;;;;;;;36.50;17.10;;;;;;;-1.08;60.86;99777.21;25086;1315;3026652;-69
2022/01/23 15:06:12;;;;;;;39.10;16.40;;;;;;;-1.07;60.54;99779.27;25147;1315;3026397;-70
2022/01/23 15:08:45;;;;;;;28.10;14.50;;;;;;;-1.06;60.58;99784.42;25110;1315;3027022;-68
2022/01/23 15:11:14;;;;;;;30.30;14.70;;;;;;;-1.06;60.39;99787.17;25129;1314;3027879;-70
2022/01/23 15:13:43;;;;;;;31.30;14.50;;;;;;;-1.16;60.85;99788.63;25116;1314;3026712;-69